Time;durP1;ratioP1;P1;durP2;ratioP2;P2;SDS_P1;SDS_P2;PMS_P1;PMS_P2;Temp;Humidity;BMP_temperature;BMP_pressure;BME280_temperature;BME280_humidity;BME280_pressure;Samples;Min_cycle;Max_cycle;Signal;HPM_P1;HPM_P2
2022/07/28 00:00:01;;;;;;;3.50;3.20;;;17.50;99.90;;;;;;5010742;28;20475;-46
2022/07/28 00:02:28;;;;;;;4.73;3.27;;;17.50;99.90;;;;;;5010800;28;20478;-45
2022/07/28 00:04:57;;;;;;;4.43;3.67;;;17.60;99.90;;;;;;5011028;28;20447;-45
2022/07/28 00:07:25;;;;;;;3.93;3.63;;;17.50;99.90;;;;;;5010781;28;20869;-48
2022/07/28 00:09:52;;;;;;;4.13;3.73;;;17.50;99.90;;;;;;5010468;28;20458;-50
2022/07/28 00:12:19;;;;;;;3.90;3.40;;;17.40;99.90;;;;;;5010930;28;20517;-46
2022/07/28 00:14:46;;;;;;;4.67;4.27;;;17.40;99.90;;;;;;5010814;28;20501;-46
2022/07/28 00:17:13;;;;;;;6.40;3.60;;;17.40;99.90;;;;;;5010901;28;20447;-45
2022/07/28 00:19:40;;;;;;;5.83;4.07;;;17.40;99.90;;;;;;5010420;28;20467;-46
2022/07/28 00:22:08;;;;;;;3.77;3.47;;;17.20;99.90;;;;;;5010507;28;20470;-46
2022/07/28 00:24:36;;;;;;;3.70;3.40;;;17.30;99.90;;;;;;5010681;28;20845;-46
2022/07/28 00:27:05;;;;;;;5.67;3.40;;;17.30;99.90;;;;;;5010443;28;20522;-45
2022/07/28 00:29:32;;;;;;;4.23;3.37;;;17.40;99.90;;;;;;5010148;28;20459;-45
2022/07/28 00:31:59;;;;;;;3.87;2.90;;;17.40;99.90;;;;;;5010675;28;20465;-45
2022/07/28 00:34:26;;;;;;;6.37;3.70;;;17.40;99.90;;;;;;5010262;28;20501;-46
2022/07/28 00:36:53;;;;;;;4.40;3.53;;;17.40;99.90;;;;;;5010730;28;20467;-45
2022/07/28 00:39:22;;;;;;;3.90;3.50;;;17.40;99.90;;;;;;5009911;28;20835;-46
2022/07/28 00:41:49;;;;;;;4.03;3.67;;;17.40;99.90;;;;;;5009942;28;20557;-45
2022/07/28 00:44:15;;;;;;;3.50;3.20;;;17.40;99.90;;;;;;5010449;28;20471;-45
2022/07/28 00:46:44;;;;;;;4.30;3.43;;;17.40;99.90;;;;;;5009805;28;20974;-45
2022/07/28 00:49:13;;;;;;;3.97;3.33;;;17.40;99.90;;;;;;5010107;28;20502;-44
2022/07/28 00:51:40;;;;;;;3.40;3.10;;;17.40;99.90;;;;;;5010117;28;20444;-49
2022/07/28 00:54:08;;;;;;;6.33;3.67;;;17.40;99.90;;;;;;5010306;28;20443;-46
2022/07/28 00:56:36;;;;;;;6.63;3.30;;;17.30;99.90;;;;;;5010178;28;20451;-49
2022/07/28 00:59:03;;;;;;;4.70;4.20;;;17.30;99.90;;;;;;5009778;28;20475;-47
2022/07/28 01:01:30;;;;;;;3.57;3.27;;;17.30;99.90;;;;;;5010232;28;21094;-45
2022/07/28 01:04:01;;;;;;;4.37;3.40;;;17.20;99.90;;;;;;5010204;28;20447;-46
2022/07/28 01:06:43;;;;;;;3.30;2.80;;;17.20;99.90;;;;;;5010213;28;20479;-46
2022/07/28 01:09:21;;;;;;;8.90;3.60;;;17.30;99.90;;;;;;5009991;28;20471;-45
2022/07/28 01:11:57;;;;;;;4.10;3.30;;;17.20;99.90;;;;;;5010002;28;20799;-45
2022/07/28 01:14:34;;;;;;;3.67;3.37;;;17.20;99.90;;;;;;5010179;28;20463;-45
2022/07/28 01:17:14;;;;;;;5.10;3.40;;;17.10;99.90;;;;;;5010096;28;20933;-45
2022/07/28 01:19:48;;;;;;;3.77;3.47;;;17.10;99.90;;;;;;5009642;28;21069;-45
2022/07/28 01:22:20;;;;;;;3.77;3.47;;;17.20;99.90;;;;;;5009873;28;20470;-47
2022/07/28 01:25:02;;;;;;;4.33;3.47;;;17.20;99.90;;;;;;5010133;28;20574;-46
2022/07/28 01:27:50;;;;;;;3.90;3.50;;;17.20;99.90;;;;;;5009933;28;20447;-45
2022/07/28 01:30:32;;;;;;;3.23;2.93;;;17.20;99.90;;;;;;5009702;28;20491;-45
2022/07/28 01:33:04;;;;;;;5.60;3.40;;;17.10;99.90;;;;;;5009950;28;20443;-49
2022/07/28 01:35:36;;;;;;;3.50;3.20;;;17.10;99.90;;;;;;5009950;28;20448;-45
2022/07/28 01:38:07;;;;;;;3.70;3.40;;;17.10;99.90;;;;;;5009741;28;20489;-45
2022/07/28 01:40:36;;;;;;;5.70;3.77;;;17.00;99.90;;;;;;5009046;28;20610;-47
2022/07/28 01:43:07;;;;;;;5.67;3.67;;;16.80;99.90;;;;;;5009572;28;20503;-45
2022/07/28 01:45:39;;;;;;;3.70;3.17;;;16.90;99.90;;;;;;5011749;28;20514;-46
2022/07/28 01:48:16;;;;;;;4.90;3.43;;;16.90;99.90;;;;;;5013211;28;20505;-46
2022/07/28 01:50:45;;;;;;;4.37;3.63;;;17.00;99.90;;;;;;5012909;28;20995;-45
2022/07/28 01:53:13;;;;;;;3.83;3.53;;;16.90;99.90;;;;;;5013411;28;20497;-46
2022/07/28 01:55:44;;;;;;;3.53;3.20;;;16.70;99.90;;;;;;5013115;28;20860;-49
2022/07/28 01:58:12;;;;;;;4.90;3.60;;;16.70;99.90;;;;;;5013226;28;20435;-47
2022/07/28 02:00:43;;;;;;;5.73;3.50;;;16.70;99.90;;;;;;5013064;28;21042;-45
2022/07/28 02:03:10;;;;;;;3.80;3.50;;;16.70;99.90;;;;;;5013059;28;20537;-45
2022/07/28 02:05:41;;;;;;;5.20;3.20;;;16.70;99.90;;;;;;5013188;28;20537;-46
2022/07/28 02:08:08;;;;;;;3.83;3.40;;;16.70;99.90;;;;;;5013201;28;20450;-45
2022/07/28 02:10:37;;;;;;;8.23;3.70;;;16.70;99.90;;;;;;5012816;28;20940;-47
2022/07/28 02:13:05;;;;;;;5.03;3.17;;;16.70;99.90;;;;;;5012959;28;20439;-46
2022/07/28 02:15:33;;;;;;;4.20;3.80;;;16.70;99.90;;;;;;5013129;28;20447;-45
2022/07/28 02:18:03;;;;;;;4.10;3.70;;;16.70;99.90;;;;;;5013242;28;20443;-47
2022/07/28 02:20:31;;;;;;;3.70;3.40;;;16.70;99.90;;;;;;5012918;28;20455;-46
2022/07/28 02:22:58;;;;;;;3.90;3.50;;;16.70;99.90;;;;;;5012636;28;20532;-49
2022/07/28 02:25:26;;;;;;;3.73;3.37;;;16.60;99.90;;;;;;5012899;28;20443;-45
2022/07/28 02:27:58;;;;;;;4.30;3.90;;;16.60;99.90;;;;;;5012632;28;20478;-47
2022/07/28 02:30:30;;;;;;;3.80;3.30;;;16.60;99.90;;;;;;5012467;28;20487;-45
2022/07/28 02:33:04;;;;;;;5.20;3.73;;;16.70;99.90;;;;;;5012868;28;20446;-45
2022/07/28 02:35:38;;;;;;;3.87;3.47;;;16.70;99.90;;;;;;5012540;28;20437;-49
2022/07/28 02:38:12;;;;;;;4.40;3.37;;;16.70;99.90;;;;;;5012660;28;20558;-45
2022/07/28 02:40:42;;;;;;;4.20;3.80;;;16.70;99.90;;;;;;5011761;28;20544;-47
2022/07/28 02:43:14;;;;;;;4.17;3.77;;;16.70;99.90;;;;;;5012507;28;20471;-47
2022/07/28 02:45:45;;;;;;;4.60;4.10;;;16.70;99.90;;;;;;5012513;28;20501;-46
2022/07/28 02:48:17;;;;;;;5.17;3.77;;;16.70;99.90;;;;;;5011909;28;20436;-49
2022/07/28 02:50:46;;;;;;;3.77;3.47;;;16.80;99.90;;;;;;5012022;28;20471;-46
2022/07/28 02:53:15;;;;;;;3.97;3.40;;;16.70;99.90;;;;;;5012594;28;20901;-45
2022/07/28 02:55:43;;;;;;;5.03;3.40;;;16.70;99.90;;;;;;5012419;28;20471;-45
2022/07/28 02:58:12;;;;;;;3.37;3.10;;;16.70;99.90;;;;;;5012299;28;20578;-46
2022/07/28 03:00:41;;;;;;;6.07;3.50;;;16.40;99.90;;;;;;5011848;28;20944;-45
2022/07/28 03:03:09;;;;;;;3.80;3.30;;;16.40;99.90;;;;;;5011842;28;20468;-46
2022/07/28 03:05:40;;;;;;;4.87;3.47;;;16.30;99.90;;;;;;5012180;28;20459;-45
2022/07/28 03:08:07;;;;;;;3.80;3.50;;;16.20;99.90;;;;;;5011958;28;20487;-48
2022/07/28 03:10:34;;;;;;;5.70;3.73;;;16.30;99.90;;;;;;5011697;28;20517;-45
2022/07/28 03:13:02;;;;;;;5.07;3.00;;;16.30;99.90;;;;;;5011847;28;20447;-47
2022/07/28 03:15:29;;;;;;;5.17;3.70;;;16.30;99.90;;;;;;5011739;28;20431;-46
2022/07/28 03:17:56;;;;;;;3.33;3.03;;;16.40;99.90;;;;;;5011822;28;20538;-45
2022/07/28 03:20:23;;;;;;;8.50;3.73;;;16.50;99.90;;;;;;5011506;28;20466;-47
2022/07/28 03:22:52;;;;;;;3.63;3.33;;;16.30;99.90;;;;;;5011736;28;20991;-45
2022/07/28 03:25:24;;;;;;;4.03;3.60;;;16.40;99.90;;;;;;5011600;28;20435;-45
2022/07/28 03:27:52;;;;;;;4.57;3.50;;;16.40;99.90;;;;;;5011643;28;20443;-45
2022/07/28 03:30:22;;;;;;;4.43;3.37;;;16.40;99.90;;;;;;5011772;28;20467;-45
2022/07/28 03:32:54;;;;;;;3.40;3.10;;;16.50;99.90;;;;;;5011693;28;20443;-45
2022/07/28 03:35:21;;;;;;;4.47;3.50;;;16.40;99.90;;;;;;5011649;28;20501;-45
2022/07/28 03:37:56;;;;;;;3.93;3.50;;;16.40;99.90;;;;;;5011439;28;20473;-49
2022/07/28 03:40:25;;;;;;;3.80;3.50;;;16.50;99.90;;;;;;5098748;22;20997;-53
2022/07/28 03:42:54;;;;;;;4.53;3.13;;;16.40;99.90;;;;;;5071223;28;20472;-48
2022/07/28 03:45:22;;;;;;;5.00;3.37;;;16.40;99.90;;;;;;5071015;28;20597;-48
2022/07/28 03:47:52;;;;;;;3.47;3.17;;;16.30;99.90;;;;;;5070668;28;20510;-48
2022/07/28 03:50:23;;;;;;;4.47;3.00;;;16.10;99.90;;;;;;5070752;28;20969;-52
2022/07/28 03:52:50;;;;;;;3.83;3.30;;;16.00;99.90;;;;;;5070812;28;20437;-52
2022/07/28 03:55:18;;;;;;;4.30;3.70;;;15.90;99.90;;;;;;5071043;28;20514;-47
2022/07/28 03:57:46;;;;;;;4.07;3.20;;;15.80;99.90;;;;;;5070800;28;20501;-47
2022/07/28 04:00:14;;;;;;;3.93;3.63;;;16.00;99.90;;;;;;5070366;28;20785;-47
2022/07/28 04:02:42;;;;;;;4.30;3.10;;;16.00;99.90;;;;;;5070549;28;20472;-47
2022/07/28 04:05:11;;;;;;;4.80;4.13;;;16.10;99.90;;;;;;5070448;28;20433;-47
2022/07/28 04:07:38;;;;;;;4.47;3.57;;;16.10;99.90;;;;;;5070141;28;20993;-49
2022/07/28 04:10:07;;;;;;;7.20;4.70;;;16.00;99.90;;;;;;5070170;28;20453;-48
2022/07/28 04:12:47;;;;;;;3.63;3.30;;;16.10;99.90;;;;;;5070500;28;20448;-47
2022/07/28 04:15:14;;;;;;;4.43;4.00;;;16.00;99.90;;;;;;5070497;28;20535;-50
2022/07/28 04:17:41;;;;;;;4.13;3.10;;;16.00;99.90;;;;;;5070214;28;20437;-50
2022/07/28 04:20:10;;;;;;;4.23;3.70;;;15.90;99.90;;;;;;5070158;28;20625;-48
2022/07/28 04:22:37;;;;;;;6.93;3.97;;;16.00;99.90;;;;;;5070230;28;20965;-47
2022/07/28 04:25:05;;;;;;;4.13;3.53;;;16.00;99.90;;;;;;5070282;28;20509;-48
2022/07/28 04:27:34;;;;;;;5.77;4.47;;;16.10;99.90;;;;;;5070189;28;20440;-48
2022/07/28 04:30:03;;;;;;;3.70;3.40;;;16.00;99.90;;;;;;5070300;28;20987;-47
2022/07/28 04:32:30;;;;;;;3.77;3.47;;;16.00;99.90;;;;;;5070123;28;20483;-49
2022/07/28 04:34:57;;;;;;;4.83;3.50;;;16.20;99.90;;;;;;5070194;28;20498;-48
2022/07/28 04:37:24;;;;;;;3.53;3.23;;;16.10;99.90;;;;;;5070110;28;20505;-51
2022/07/28 04:39:51;;;;;;;3.10;2.80;;;16.00;99.90;;;;;;5069737;28;20977;-50
2022/07/28 04:42:18;;;;;;;4.77;3.97;;;16.10;99.90;;;;;;5069595;28;20486;-47
2022/07/28 04:44:45;;;;;;;5.30;4.07;;;16.20;99.90;;;;;;5070251;28;20452;-47
2022/07/28 04:47:14;;;;;;;3.80;3.40;;;16.10;99.90;;;;;;5069415;28;20461;-47
2022/07/28 04:49:42;;;;;;;4.10;3.70;;;16.10;99.90;;;;;;5069721;28;20472;-49
2022/07/28 04:52:09;;;;;;;7.13;4.90;;;16.10;99.90;;;;;;5070007;28;20448;-47
2022/07/28 04:54:37;;;;;;;4.13;3.53;;;16.10;99.90;;;;;;5070471;28;20917;-47
2022/07/28 04:57:04;;;;;;;9.40;3.67;;;16.00;99.90;;;;;;5069882;28;20444;-48
2022/07/28 04:59:31;;;;;;;4.87;3.80;;;15.90;99.90;;;;;;5069613;28;20472;-47
2022/07/28 05:01:58;;;;;;;4.53;4.13;;;15.70;99.90;;;;;;5069950;28;20440;-49
2022/07/28 05:04:27;;;;;;;5.10;4.60;;;15.60;99.90;;;;;;5069451;28;20980;-47
2022/07/28 05:06:54;;;;;;;7.90;4.20;;;15.60;99.90;;;;;;5069725;28;20500;-52
2022/07/28 05:09:21;;;;;;;11.80;5.27;;;15.50;99.90;;;;;;5069434;28;20436;-49
2022/07/28 05:11:48;;;;;;;14.00;6.20;;;15.50;99.90;;;;;;5069811;28;20766;-48
2022/07/28 05:14:16;;;;;;;8.80;5.30;;;15.50;99.90;;;;;;5069875;28;20464;-47
2022/07/28 05:16:43;;;;;;;8.87;6.90;;;15.50;99.90;;;;;;5069573;28;20523;-49
2022/07/28 05:19:10;;;;;;;10.63;7.00;;;15.40;99.90;;;;;;5069231;28;20437;-49
2022/07/28 05:21:38;;;;;;;20.53;15.53;;;15.40;99.90;;;;;;5073418;28;20451;-51
2022/07/28 05:24:06;;;;;;;8.83;7.93;;;15.50;99.90;;;;;;5073379;28;20503;-48
2022/07/28 05:26:33;;;;;;;7.17;5.10;;;15.60;99.90;;;;;;5073608;28;20445;-50
2022/07/28 05:29:00;;;;;;;8.33;4.47;;;15.60;99.90;;;;;;5073215;28;20491;-46
2022/07/28 05:31:27;;;;;;;5.73;5.03;;;15.80;99.90;;;;;;5073614;28;20492;-52
2022/07/28 05:33:54;;;;;;;6.00;5.13;;;15.80;99.90;;;;;;5073485;28;20436;-47
2022/07/28 05:36:21;;;;;;;5.10;4.60;;;15.90;99.90;;;;;;5073482;28;20440;-49
2022/07/28 05:38:50;;;;;;;6.43;5.10;;;16.00;99.90;;;;;;5072915;28;20436;-47
2022/07/28 05:41:17;;;;;;;7.37;4.40;;;16.00;99.90;;;;;;5072556;28;20890;-49
2022/07/28 05:43:44;;;;;;;4.80;4.30;;;16.00;99.90;;;;;;5073125;28;20518;-47
2022/07/28 05:46:11;;;;;;;5.87;4.90;;;16.10;99.90;;;;;;5072792;28;20899;-48
2022/07/28 05:48:38;;;;;;;6.20;5.27;;;16.20;99.90;;;;;;5073289;28;20453;-50
2022/07/28 05:51:05;;;;;;;5.40;4.70;;;16.20;99.90;;;;;;5072912;28;20945;-48
2022/07/28 05:53:32;;;;;;;4.73;4.23;;;16.20;99.90;;;;;;5073096;28;20900;-45
2022/07/28 05:56:00;;;;;;;4.80;4.10;;;16.20;99.90;;;;;;5073023;28;20966;-50
2022/07/28 05:58:27;;;;;;;4.50;3.90;;;16.30;99.90;;;;;;5072858;28;20787;-50
2022/07/28 06:00:57;;;;;;;4.30;3.90;;;16.40;99.90;;;;;;5073125;28;20468;-50
2022/07/28 06:03:24;;;;;;;5.00;4.60;;;16.50;99.90;;;;;;5072660;28;20977;-48
2022/07/28 06:05:54;;;;;;;4.47;4.03;;;16.60;99.90;;;;;;5073113;28;20946;-47
2022/07/28 06:08:21;;;;;;;4.20;3.60;;;16.70;99.90;;;;;;5072924;28;20456;-47
2022/07/28 06:11:00;;;;;;;5.10;4.60;;;16.70;99.90;;;;;;5072610;28;20468;-51
2022/07/28 06:13:29;;;;;;;4.27;3.87;;;16.80;99.90;;;;;;5073057;28;20442;-47
2022/07/28 06:15:57;;;;;;;10.87;5.37;;;16.70;99.90;;;;;;5072661;28;20495;-49
2022/07/28 06:18:24;;;;;;;24.77;7.70;;;17.10;99.90;;;;;;5072529;28;21028;-51
2022/07/28 06:20:51;;;;;;;7.83;6.43;;;17.90;99.90;;;;;;5072162;28;20452;-46
2022/07/28 06:23:22;;;;;;;10.30;5.53;;;18.80;99.90;;;;;;5072797;28;20460;-49
2022/07/28 06:25:49;;;;;;;21.07;6.17;;;19.40;99.90;;;;;;5072435;28;20429;-54
2022/07/28 06:28:17;;;;;;;11.30;6.00;;;19.60;99.90;;;;;;5072459;28;20509;-49
2022/07/28 06:30:46;;;;;;;9.43;4.83;;;19.80;99.90;;;;;;5071921;28;20534;-49
2022/07/28 06:33:14;;;;;;;11.83;6.13;;;19.80;99.90;;;;;;5072504;28;20783;-50
2022/07/28 06:35:41;;;;;;;8.10;4.70;;;19.80;99.90;;;;;;5072240;28;20444;-49
2022/07/28 06:38:08;;;;;;;6.93;4.33;;;19.90;99.90;;;;;;5072119;28;20482;-51
2022/07/28 06:40:35;;;;;;;3.67;3.37;;;19.80;99.90;;;;;;5071606;28;21049;-49
2022/07/28 06:43:02;;;;;;;5.50;5.00;;;19.70;99.90;;;;;;5072490;28;20502;-53
2022/07/28 06:45:29;;;;;;;6.30;5.07;;;19.80;99.90;;;;;;5072501;28;20988;-50
2022/07/28 06:47:57;;;;;;;5.00;3.67;;;19.60;99.90;;;;;;5071979;28;20841;-49
2022/07/28 06:50:24;;;;;;;6.33;5.67;;;19.50;99.90;;;;;;5071847;28;20452;-52
2022/07/28 06:52:51;;;;;;;16.67;5.37;;;19.10;99.90;;;;;;5072105;28;20496;-49
2022/07/28 06:55:18;;;;;;;8.17;4.87;;;19.00;99.90;;;;;;5072147;28;20448;-52
2022/07/28 06:57:45;;;;;;;10.70;9.30;;;18.90;99.90;;;;;;5072172;28;20448;-50
2022/07/28 07:00:13;;;;;;;5.67;4.80;;;18.90;99.90;;;;;;5071735;28;20471;-52
2022/07/28 07:02:41;;;;;;;7.27;4.97;;;19.10;99.90;;;;;;5072030;28;20533;-51
2022/07/28 07:05:11;;;;;;;10.60;4.37;;;19.00;99.90;;;;;;5071555;28;20522;-52
2022/07/28 07:07:38;;;;;;;4.90;4.40;;;18.90;99.90;;;;;;5071846;28;20437;-52
2022/07/28 07:10:06;;;;;;;6.40;4.47;;;18.90;99.90;;;;;;5071690;28;20464;-50
2022/07/28 07:12:34;;;;;;;12.83;4.90;;;19.00;99.90;;;;;;5071961;28;20453;-49
2022/07/28 07:15:01;;;;;;;4.80;4.30;;;19.20;99.90;;;;;;5071879;28;20540;-51
2022/07/28 07:17:28;;;;;;;5.17;3.90;;;19.20;99.90;;;;;;5071848;28;20479;-49
2022/07/28 07:19:55;;;;;;;4.23;3.83;;;19.30;99.90;;;;;;5071273;28;20472;-50
2022/07/28 07:22:23;;;;;;;7.60;5.07;;;19.40;99.90;;;;;;5071483;28;21007;-49
2022/07/28 07:24:50;;;;;;;4.83;4.43;;;19.50;99.90;;;;;;5071350;28;20876;-49
2022/07/28 07:27:17;;;;;;;5.10;4.07;;;19.60;99.90;;;;;;5071458;28;21010;-52
2022/07/28 07:29:44;;;;;;;4.93;4.43;;;19.70;99.90;;;;;;5070879;28;20472;-49
2022/07/28 07:32:11;;;;;;;4.83;3.93;;;19.80;99.90;;;;;;5071130;28;20441;-53
2022/07/28 07:34:39;;;;;;;4.53;4.13;;;19.80;99.90;;;;;;5071134;28;20453;-49
2022/07/28 07:37:10;;;;;;;6.03;4.83;;;19.80;99.90;;;;;;5071130;28;20440;-49
2022/07/28 07:39:39;;;;;;;7.47;4.77;;;19.70;99.90;;;;;;5070615;28;20464;-52
2022/07/28 07:42:07;;;;;;;8.10;5.37;;;19.70;99.90;;;;;;5070304;28;20498;-51
2022/07/28 07:44:34;;;;;;;5.50;4.50;;;20.00;99.90;;;;;;5070363;28;21007;-52
2022/07/28 07:47:01;;;;;;;5.23;4.83;;;20.20;99.90;;;;;;5070764;28;20445;-51
2022/07/28 07:49:28;;;;;;;4.73;4.10;;;20.40;99.90;;;;;;5070687;28;20464;-49
2022/07/28 07:51:55;;;;;;;6.17;4.30;;;20.50;99.90;;;;;;5071073;28;20938;-51
2022/07/28 07:54:21;;;;;;;4.30;3.90;;;20.70;99.90;;;;;;5070808;28;20436;-50
2022/07/28 07:56:50;;;;;;;4.90;4.00;;;21.10;99.90;;;;;;5071095;28;20445;-51
2022/07/28 07:59:17;;;;;;;5.87;3.83;;;20.90;99.90;;;;;;5070486;28;20452;-51
2022/07/28 08:01:44;;;;;;;3.33;3.03;;;20.70;99.90;;;;;;5070623;28;20971;-49
2022/07/28 08:04:11;;;;;;;4.97;4.50;;;20.60;99.90;;;;;;5070533;28;20460;-55
2022/07/28 08:06:38;;;;;;;4.20;3.90;;;20.40;99.90;;;;;;5070415;28;20524;-51
2022/07/28 08:09:05;;;;;;;5.57;3.80;;;20.10;99.90;;;;;;5069654;28;20476;-54
2022/07/28 08:11:32;;;;;;;4.23;3.87;;;20.20;99.90;;;;;;5070358;28;20501;-51
2022/07/28 08:14:00;;;;;;;4.73;4.33;;;20.10;99.90;;;;;;5070392;28;20437;-49
2022/07/28 08:16:27;;;;;;;4.50;4.00;;;20.00;99.90;;;;;;5070343;28;20452;-50
2022/07/28 08:18:57;;;;;;;5.13;4.63;;;19.20;99.90;;;;;;5070488;28;20505;-50
2022/07/28 08:21:24;;;;;;;4.80;4.40;;;18.70;99.90;;;;;;5070293;28;20467;-51
2022/07/28 08:23:51;;;;;;;4.80;4.40;;;18.70;99.90;;;;;;5070203;28;20513;-51
2022/07/28 08:26:18;;;;;;;7.40;4.90;;;18.60;99.90;;;;;;5070190;28;20478;-49
2022/07/28 08:28:45;;;;;;;5.73;4.90;;;18.60;99.90;;;;;;5070114;28;21210;-51
2022/07/28 08:31:15;;;;;;;5.80;4.60;;;18.60;99.90;;;;;;5070611;28;21001;-49
2022/07/28 08:33:42;;;;;;;5.70;5.10;;;18.60;99.90;;;;;;5070446;28;20455;-50
2022/07/28 08:36:09;;;;;;;5.27;4.53;;;18.70;99.90;;;;;;5070227;28;20448;-49
2022/07/28 08:38:36;;;;;;;6.17;4.97;;;18.80;99.90;;;;;;5070037;28;20486;-49
2022/07/28 08:41:06;;;;;;;7.43;5.07;;;18.80;99.90;;;;;;5069675;28;20464;-50
2022/07/28 08:43:35;;;;;;;5.13;4.70;;;19.00;99.90;;;;;;5070128;28;20556;-52
2022/07/28 08:46:05;;;;;;;6.40;4.73;;;19.10;99.90;;;;;;5070022;28;20432;-50
2022/07/28 08:48:35;;;;;;;5.83;4.03;;;19.10;99.90;;;;;;5070301;28;20437;-54
2022/07/28 08:51:06;;;;;;;5.67;5.17;;;19.20;99.90;;;;;;5069701;28;20475;-52
2022/07/28 08:53:35;;;;;;;5.97;5.47;;;19.20;99.90;;;;;;5070241;28;20441;-50
2022/07/28 08:56:04;;;;;;;4.87;4.47;;;19.40;99.90;;;;;;5069919;28;20433;-49
2022/07/28 08:58:33;;;;;;;4.47;4.07;;;19.40;99.90;;;;;;5069762;28;20858;-50
2022/07/28 09:01:01;;;;;;;4.90;4.50;;;19.60;99.90;;;;;;5069773;28;20964;-52
2022/07/28 09:03:29;;;;;;;4.97;4.50;;;19.70;99.90;;;;;;5069881;28;20448;-49
2022/07/28 09:05:58;;;;;;;9.20;4.33;;;19.80;99.90;;;;;;5070075;28;20971;-49
2022/07/28 09:08:26;;;;;;;5.27;4.77;;;19.90;99.90;;;;;;5069887;28;20467;-51
2022/07/28 09:10:53;;;;;;;6.63;4.47;;;20.00;99.90;;;;;;5069464;28;20452;-49
2022/07/28 09:13:20;;;;;;;4.23;3.87;;;20.00;99.90;;;;;;5069841;28;20448;-47
2022/07/28 09:15:48;;;;;;;4.83;4.43;;;20.10;99.90;;;;;;5069268;28;20440;-53
2022/07/28 09:18:16;;;;;;;5.90;4.77;;;20.20;99.90;;;;;;5069914;28;20441;-51
2022/07/28 09:20:43;;;;;;;4.33;3.90;;;20.30;99.90;;;;;;5069514;28;20488;-49
2022/07/28 09:23:13;;;;;;;5.17;4.63;;;20.40;99.90;;;;;;5069719;28;20449;-51
2022/07/28 09:25:40;;;;;;;4.17;3.77;;;20.50;99.90;;;;;;5069555;28;20476;-50
2022/07/28 09:28:09;;;;;;;4.30;3.90;;;20.40;99.90;;;;;;5069678;28;20444;-50
2022/07/28 09:30:39;;;;;;;4.50;4.10;;;20.40;99.90;;;;;;5069412;28;20514;-49
2022/07/28 09:33:21;;;;;;;7.30;4.90;;;20.50;99.90;;;;;;5069521;28;20439;-52
2022/07/28 09:35:51;;;;;;;4.60;4.30;;;20.70;99.90;;;;;;5069625;28;20852;-51
2022/07/28 09:38:22;;;;;;;4.60;3.93;;;20.90;99.90;;;;;;5069443;28;20429;-50
2022/07/28 09:40:58;;;;;;;4.03;3.63;;;21.20;99.90;;;;;;5070171;28;20475;-50
2022/07/28 09:43:35;;;;;;;5.20;4.20;;;21.30;99.90;;;;;;5069507;28;21001;-52
2022/07/28 09:46:08;;;;;;;5.10;4.60;;;21.40;99.90;;;;;;5069301;28;20475;-51
2022/07/28 09:48:35;;;;;;;3.97;3.67;;;21.40;99.90;;;;;;5069431;28;20453;-49
2022/07/28 09:51:13;;;;;;;4.37;4.00;;;21.50;99.90;;;;;;5069039;28;20899;-50
2022/07/28 09:53:43;;;;;;;5.60;4.90;;;21.40;99.90;;;;;;5069526;28;20444;-52
2022/07/28 09:56:11;;;;;;;5.10;4.60;;;21.40;99.90;;;;;;5069361;28;20513;-51
2022/07/28 09:58:39;;;;;;;4.93;4.50;;;21.60;99.90;;;;;;5069316;28;20452;-53
2022/07/28 10:01:08;;;;;;;4.83;4.37;;;21.80;99.90;;;;;;5069076;28;20522;-54
2022/07/28 10:03:36;;;;;;;5.50;5.00;;;21.90;99.90;;;;;;5069280;28;20457;-50
2022/07/28 10:06:08;;;;;;;4.90;3.80;;;22.10;99.90;;;;;;5070032;28;20472;-50
2022/07/28 10:08:44;;;;;;;4.90;4.40;;;22.10;99.90;;;;;;5072654;28;20505;-54
2022/07/28 10:11:13;;;;;;;4.70;3.80;;;22.10;99.90;;;;;;5073220;28;20517;-51
2022/07/28 10:13:53;;;;;;;6.43;3.73;;;22.20;99.90;;;;;;5072692;28;20461;-51
2022/07/28 10:16:21;;;;;;;4.20;3.77;;;22.20;99.90;;;;;;5073021;28;20440;-51
2022/07/28 10:18:48;;;;;;;4.70;4.30;;;22.40;99.90;;;;;;5072331;28;20855;-53
2022/07/28 10:21:17;;;;;;;4.50;4.10;;;22.40;99.90;;;;;;5072695;28;21061;-51
2022/07/28 10:23:48;;;;;;;4.40;4.00;;;22.50;99.90;;;;;;5072461;28;20437;-51
2022/07/28 10:26:16;;;;;;;5.40;4.30;;;22.60;99.90;;;;;;5072483;28;20476;-50
2022/07/28 10:28:48;;;;;;;4.97;4.57;;;22.80;99.90;;;;;;5072424;28;20436;-51
2022/07/28 10:31:24;;;;;;;4.30;3.93;;;22.90;99.90;;;;;;5072591;28;21016;-52
2022/07/28 10:33:55;;;;;;;4.83;4.43;;;22.90;99.90;;;;;;5072546;28;20440;-53
2022/07/28 10:36:24;;;;;;;4.47;4.07;;;23.00;99.90;;;;;;5072412;28;20436;-50
2022/07/28 10:38:58;;;;;;;4.43;4.03;;;23.00;99.90;;;;;;5071983;28;20503;-53
2022/07/28 10:41:28;;;;;;;4.63;4.27;;;22.80;99.90;;;;;;5071106;28;20476;-52
2022/07/28 10:43:56;;;;;;;4.57;4.10;;;22.80;99.90;;;;;;5071141;28;20512;-50
2022/07/28 10:46:25;;;;;;;3.97;3.67;;;22.90;99.90;;;;;;5071904;28;20517;-53
2022/07/28 10:48:52;;;;;;;6.70;4.10;;;22.80;99.90;;;;;;5071874;28;20460;-50
2022/07/28 10:51:21;;;;;;;4.10;3.80;;;22.80;99.90;;;;;;5071476;28;20440;-51
2022/07/28 10:53:55;;;;;;;4.70;4.30;;;22.80;99.90;;;;;;5071559;28;20957;-51
2022/07/28 10:56:30;;;;;;;4.87;4.47;;;22.90;99.90;;;;;;5071651;28;20452;-53
2022/07/28 10:59:03;;;;;;;4.30;3.70;;;23.00;99.90;;;;;;5071548;28;20432;-53
2022/07/28 11:01:34;;;;;;;5.03;4.43;;;23.10;99.90;;;;;;5072483;28;20510;-52
2022/07/28 11:04:02;;;;;;;4.73;3.83;;;23.20;99.90;;;;;;5072018;28;20547;-50
2022/07/28 11:06:30;;;;;;;3.97;3.67;;;23.20;99.90;;;;;;5071814;28;20473;-47
2022/07/28 11:09:00;;;;;;;4.40;4.10;;;23.40;99.90;;;;;;5072004;28;20452;-52
2022/07/28 11:11:54;;;;;;;4.67;4.27;;;23.50;99.90;;;;;;5071764;28;20472;-53
2022/07/28 11:14:33;;;;;;;4.23;3.83;;;23.70;99.90;;;;;;5047199;28;20444;-50
2022/07/28 11:17:15;;;;;;;4.47;4.03;;;23.70;99.90;;;;;;5070970;28;20428;-53
2022/07/28 11:19:54;;;;;;;4.63;4.27;;;23.90;99.90;;;;;;5071182;28;20545;-51
2022/07/28 11:22:29;;;;;;;4.73;4.33;;;23.90;99.90;;;;;;5071428;28;20467;-52
2022/07/28 11:25:17;;;;;;;4.60;4.20;;;23.90;99.90;;;;;;5071740;28;20934;-51
2022/07/28 11:28:04;;;;;;;3.97;3.67;;;23.90;99.90;;;;;;5071286;28;20431;-51
2022/07/28 11:30:50;;;;;;;4.00;3.70;;;24.00;99.90;;;;;;5070991;28;20484;-50
2022/07/28 11:33:19;;;;;;;4.33;3.77;;;24.10;99.90;;;;;;5071454;28;20462;-50
2022/07/28 11:36:07;;;;;;;4.77;4.30;;;24.10;99.90;;;;;;5071166;28;21003;-51
2022/07/28 11:38:34;;;;;;;4.23;3.83;;;23.80;99.90;;;;;;5067892;28;20441;-50
2022/07/28 11:41:02;;;;;;;4.37;3.60;;;23.80;99.90;;;;;;5070616;28;20518;-51
2022/07/28 11:43:33;;;;;;;3.80;3.50;;;24.00;99.90;;;;;;5071172;28;20803;-50
2022/07/28 11:46:34;;;;;;;4.00;3.60;;;24.20;99.90;;;;;;5071071;28;20472;-49
2022/07/28 11:49:27;;;;;;;4.20;3.47;;;24.20;99.90;;;;;;5070515;28;20933;-51
2022/07/28 11:52:20;;;;;;;3.80;3.20;;;24.20;99.90;;;;;;5070999;28;21002;-50
2022/07/28 11:54:52;;;;;;;4.00;3.70;;;24.40;99.90;;;;;;5070761;28;20436;-50
2022/07/28 11:57:24;;;;;;;4.00;3.60;;;24.70;99.90;;;;;;5070510;28;20543;-54
2022/07/28 11:59:56;;;;;;;4.20;3.80;;;24.80;99.90;;;;;;5070389;28;20459;-50
2022/07/28 12:02:27;;;;;;;3.93;3.30;;;25.00;99.90;;;;;;5070883;28;20444;-49
2022/07/28 12:05:13;;;;;;;4.83;3.80;;;25.10;99.90;;;;;;5070601;28;20480;-53
2022/07/28 12:07:43;;;;;;;4.70;4.30;;;25.00;99.90;;;;;;5070443;28;21017;-49
2022/07/28 12:10:34;;;;;;;4.37;3.97;;;25.20;99.90;;;;;;5070336;28;20460;-49
2022/07/28 12:13:06;;;;;;;3.17;2.87;;;25.30;99.90;;;;;;5070689;28;20872;-50
2022/07/28 12:15:33;;;;;;;6.87;3.60;;;25.40;99.90;;;;;;5070906;28;20828;-52
2022/07/28 12:18:01;;;;;;;3.30;3.00;;;25.50;99.90;;;;;;5070296;28;20432;-50
2022/07/28 12:20:31;;;;;;;3.57;2.77;;;25.60;99.90;;;;;;5070166;28;20902;-50
2022/07/28 12:23:01;;;;;;;3.40;3.10;;;25.70;99.90;;;;;;5070322;28;20428;-50
2022/07/28 12:25:29;;;;;;;3.63;3.33;;;25.80;99.90;;;;;;5070268;28;20475;-51
2022/07/28 12:27:57;;;;;;;3.80;3.40;;;25.90;99.90;;;;;;5070274;28;20441;-52
2022/07/28 12:30:29;;;;;;;3.10;2.90;;;26.00;99.90;;;;;;5069514;28;20456;-51
2022/07/28 12:32:56;;;;;;;4.10;3.50;;;26.10;99.90;;;;;;5070217;28;20429;-52
2022/07/28 12:35:25;;;;;;;7.67;3.50;;;26.10;99.90;;;;;;5070223;28;20539;-49
2022/07/28 12:37:52;;;;;;;3.20;2.80;;;26.20;99.90;;;;;;5070086;28;20486;-50
2022/07/28 12:40:20;;;;;;;4.00;3.17;;;26.10;99.90;;;;;;5069419;28;20464;-49
2022/07/28 12:42:55;;;;;;;3.80;3.50;;;26.20;99.90;;;;;;5070070;28;20448;-50
2022/07/28 12:45:22;;;;;;;3.40;3.10;;;26.20;99.90;;;;;;5070035;28;20464;-50
2022/07/28 12:47:50;;;;;;;3.80;3.50;;;26.10;99.90;;;;;;5069939;28;20445;-50
2022/07/28 12:50:19;;;;;;;3.60;3.30;;;26.30;99.90;;;;;;5069949;28;20937;-50
2022/07/28 12:53:01;;;;;;;4.80;3.30;;;26.30;99.90;;;;;;5069838;28;20800;-49
2022/07/28 12:55:29;;;;;;;4.20;3.40;;;26.20;99.90;;;;;;5070071;28;20432;-51
2022/07/28 12:57:56;;;;;;;4.37;3.17;;;26.30;99.90;;;;;;5069562;28;20460;-50